Time;durP1;ratioP1;P1;durP2;ratioP2;P2;SDS_P1;SDS_P2;PMS_P1;PMS_P2;Temp;Humidity;BMP_temperature;BMP_pressure;BME280_temperature;BME280_humidity;BME280_pressure;Samples;Min_cycle;Max_cycle;Signal;HPM_P1;HPM_P2
2021/03/22 00:01:41;;;;;;;18.25;4.70;;;6.70;99.90;;;;;;4958322;28;20222;-71
2021/03/22 00:04:09;;;;;;;18.02;6.15;;;6.60;99.90;;;;;;4963171;28;20206;-70
2021/03/22 00:06:36;;;;;;;26.33;5.38;;;6.60;99.90;;;;;;4955050;28;20207;-73
2021/03/22 00:09:04;;;;;;;18.75;4.63;;;6.60;99.90;;;;;;4962945;28;20692;-71
2021/03/22 00:11:31;;;;;;;22.92;6.68;;;6.60;99.90;;;;;;4969756;28;20301;-72
2021/03/22 00:13:57;;;;;;;18.13;6.38;;;6.50;99.90;;;;;;4969749;28;20226;-71
2021/03/22 00:16:25;;;;;;;19.08;5.68;;;6.50;99.90;;;;;;4969558;28;20214;-70
2021/03/22 00:18:52;;;;;;;28.38;6.90;;;6.50;99.90;;;;;;4969229;28;20567;-71
2021/03/22 00:21:20;;;;;;;16.98;5.70;;;6.50;99.90;;;;;;4971570;28;20226;-71
2021/03/22 00:23:47;;;;;;;23.13;6.10;;;6.40;99.90;;;;;;4968681;28;20630;-70
2021/03/22 00:26:14;;;;;;;14.32;5.93;;;6.40;99.90;;;;;;4964130;28;20585;-70
2021/03/22 00:28:41;;;;;;;22.85;7.10;;;6.40;99.90;;;;;;4966946;28;20594;-69
2021/03/22 00:31:08;;;;;;;17.98;5.03;;;6.50;99.90;;;;;;4962589;28;20769;-70
2021/03/22 00:33:35;;;;;;;21.77;5.50;;;6.50;99.90;;;;;;4960115;28;20634;-70
2021/03/22 00:36:03;;;;;;;19.77;5.13;;;6.50;99.90;;;;;;4971287;28;20618;-71
2021/03/22 00:38:31;;;;;;;17.85;5.40;;;6.50;99.90;;;;;;4963374;28;20249;-70
2021/03/22 00:40:58;;;;;;;17.92;4.90;;;6.50;99.90;;;;;;4958942;28;20230;-70
2021/03/22 00:43:26;;;;;;;22.80;5.88;;;6.50;99.90;;;;;;4961358;28;20599;-70
2021/03/22 00:45:55;;;;;;;23.45;5.25;;;6.60;99.90;;;;;;4958517;28;20214;-70
2021/03/22 00:48:21;;;;;;;22.88;4.90;;;6.60;99.90;;;;;;4962618;28;20210;-71
2021/03/22 00:50:48;;;;;;;20.65;5.72;;;6.60;99.90;;;;;;4973983;28;20227;-71
2021/03/22 00:53:16;;;;;;;19.05;5.20;;;6.70;99.90;;;;;;4969471;28;20233;-71
2021/03/22 00:55:44;;;;;;;19.75;6.13;;;6.80;99.90;;;;;;4965471;28;20232;-70
2021/03/22 00:58:11;;;;;;;20.13;6.05;;;6.80;99.90;;;;;;4961486;28;20207;-71
2021/03/22 01:00:41;;;;;;;17.83;4.97;;;6.80;99.90;;;;;;4966927;28;20226;-71
2021/03/22 01:03:13;;;;;;;19.42;5.60;;;6.70;99.90;;;;;;4963853;28;20202;-71
2021/03/22 01:05:41;;;;;;;20.70;5.88;;;6.70;99.90;;;;;;4968747;28;20211;-70
2021/03/22 01:08:08;;;;;;;30.58;8.10;;;6.70;99.90;;;;;;4960011;28;20294;-72
2021/03/22 01:10:39;;;;;;;25.05;6.32;;;6.70;99.90;;;;;;4967933;28;20264;-71
2021/03/22 01:13:10;;;;;;;26.98;6.57;;;6.70;99.90;;;;;;4968082;28;20226;-71
2021/03/22 01:15:36;;;;;;;17.70;6.57;;;6.70;99.90;;;;;;4968108;28;20221;-70
2021/03/22 01:18:04;;;;;;;18.40;4.40;;;6.70;99.90;;;;;;4958957;28;20290;-70
2021/03/22 01:20:35;;;;;;;19.02;5.65;;;6.70;99.90;;;;;;4972292;28;20229;-70
2021/03/22 01:23:02;;;;;;;36.15;7.50;;;6.70;99.90;;;;;;4966761;28;20202;-70
2021/03/22 01:25:28;;;;;;;33.13;6.95;;;6.70;99.90;;;;;;4959004;28;20650;-70
2021/03/22 01:27:55;;;;;;;22.83;6.35;;;6.70;99.90;;;;;;4968798;28;20202;-73
2021/03/22 01:30:30;;;;;;;23.90;7.20;;;6.70;99.90;;;;;;4957444;28;20233;-71
2021/03/22 01:32:58;;;;;;;23.15;7.43;;;6.70;99.90;;;;;;4957435;28;20233;-71
2021/03/22 01:35:25;;;;;;;21.45;7.13;;;6.70;99.90;;;;;;4961262;28;20630;-71
2021/03/22 01:37:52;;;;;;;18.65;7.50;;;6.70;99.90;;;;;;4973604;28;20555;-70
2021/03/22 01:40:35;;;;;;;17.17;6.80;;;6.70;99.90;;;;;;4953457;28;20318;-71
2021/03/22 01:43:08;;;;;;;34.95;6.65;;;6.70;99.90;;;;;;4961985;28;20203;-72
2021/03/22 01:45:36;;;;;;;18.33;6.05;;;6.70;99.90;;;;;;4957699;28;20270;-70
2021/03/22 01:48:02;;;;;;;23.80;7.90;;;6.70;99.90;;;;;;4960072;28;20306;-71
2021/03/22 01:50:32;;;;;;;21.55;5.80;;;6.70;99.90;;;;;;4960943;28;20273;-71
2021/03/22 01:53:00;;;;;;;16.33;6.57;;;6.60;99.90;;;;;;4962086;28;20215;-71
2021/03/22 01:55:28;;;;;;;19.70;7.32;;;6.60;99.90;;;;;;4956051;28;20214;-72
2021/03/22 01:57:55;;;;;;;28.13;8.60;;;6.60;99.90;;;;;;4963294;28;20216;-72
2021/03/22 02:00:27;;;;;;;24.15;7.35;;;6.60;99.90;;;;;;4964518;28;20285;-71
2021/03/22 02:02:59;;;;;;;24.10;6.10;;;6.60;99.90;;;;;;4961173;28;20293;-70
2021/03/22 02:05:27;;;;;;;18.45;5.47;;;6.70;99.90;;;;;;4962837;28;20203;-70
2021/03/22 02:08:00;;;;;;;28.33;8.60;;;6.70;99.90;;;;;;4961199;28;20203;-71
2021/03/22 02:10:27;;;;;;;26.85;6.70;;;6.70;99.90;;;;;;4970072;28;20594;-70
2021/03/22 02:12:54;;;;;;;20.27;7.38;;;6.60;99.90;;;;;;4969259;28;20216;-71
2021/03/22 02:15:21;;;;;;;27.15;6.70;;;6.60;99.90;;;;;;4966882;28;20202;-71
2021/03/22 02:18:01;;;;;;;33.47;7.43;;;6.70;99.90;;;;;;4975756;28;20574;-71
2021/03/22 02:21:01;;;;;;;19.00;6.80;;;6.70;99.90;;;;;;4972619;28;20233;-71
2021/03/22 02:24:06;;;;;;;15.40;6.25;;;6.60;99.90;;;;;;4961050;28;20210;-71
2021/03/22 02:27:03;;;;;;;23.55;8.32;;;6.60;99.90;;;;;;4962857;28;20217;-70
2021/03/22 02:30:00;;;;;;;23.88;6.78;;;6.70;99.90;;;;;;4959224;28;20306;-71
2021/03/22 02:32:54;;;;;;;28.08;8.70;;;6.60;99.90;;;;;;4965243;28;20213;-71
2021/03/22 02:35:30;;;;;;;30.42;7.43;;;6.60;99.90;;;;;;4958265;28;20235;-72
2021/03/22 02:38:01;;;;;;;23.67;8.82;;;6.50;99.90;;;;;;4973363;28;20218;-70
2021/03/22 02:40:39;;;;;;;20.42;7.28;;;6.60;99.90;;;;;;4971500;28;20277;-70
2021/03/22 02:43:07;;;;;;;22.30;7.35;;;6.60;99.90;;;;;;4957234;28;20206;-71
2021/03/22 02:45:36;;;;;;;17.50;7.43;;;6.70;99.90;;;;;;4964411;28;20612;-70
2021/03/22 02:48:03;;;;;;;21.63;7.00;;;6.70;99.90;;;;;;4960621;28;20225;-72
2021/03/22 02:50:39;;;;;;;20.77;7.00;;;6.80;99.90;;;;;;4962631;28;20289;-70
2021/03/22 02:53:26;;;;;;;24.65;7.53;;;6.70;99.90;;;;;;4970617;28;20213;-70
2021/03/22 02:56:08;;;;;;;29.25;8.05;;;6.70;99.90;;;;;;4961019;28;20203;-72
2021/03/22 02:58:42;;;;;;;20.40;6.78;;;6.70;99.90;;;;;;4955544;28;20295;-71
2021/03/22 03:01:17;;;;;;;28.52;9.27;;;6.80;99.90;;;;;;4956417;28;20227;-70
2021/03/22 03:03:46;;;;;;;27.10;9.50;;;6.80;99.90;;;;;;4962302;28;20205;-71
2021/03/22 03:06:13;;;;;;;18.63;8.15;;;6.80;99.90;;;;;;4960396;28;20267;-71
2021/03/22 03:08:41;;;;;;;17.98;7.65;;;6.80;99.90;;;;;;4962348;28;20207;-70
2021/03/22 03:11:09;;;;;;;32.35;7.50;;;6.70;99.90;;;;;;4967827;28;20274;-71
2021/03/22 03:13:36;;;;;;;26.55;7.07;;;6.60;99.90;;;;;;4970374;28;20218;-71
2021/03/22 03:16:04;;;;;;;21.67;8.30;;;6.50;99.90;;;;;;4973120;28;20646;-70
2021/03/22 03:18:31;;;;;;;29.95;10.23;;;6.50;99.90;;;;;;4969692;28;20203;-70
2021/03/22 03:20:58;;;;;;;25.35;10.13;;;6.50;99.90;;;;;;4962244;28;20246;-69
2021/03/22 03:23:27;;;;;;;30.75;9.93;;;6.50;99.90;;;;;;4974361;28;20206;-71
2021/03/22 03:25:53;;;;;;;18.83;9.73;;;6.50;99.90;;;;;;4965084;28;20537;-70
2021/03/22 03:28:20;;;;;;;21.05;8.38;;;6.50;99.90;;;;;;4964126;28;20576;-70
2021/03/22 03:30:47;;;;;;;31.75;8.55;;;6.50;99.90;;;;;;4959942;28;20234;-70
2021/03/22 03:33:15;;;;;;;29.00;7.93;;;6.60;99.90;;;;;;4972198;28;20285;-71
2021/03/22 03:35:46;;;;;;;22.70;8.15;;;6.60;99.90;;;;;;4964788;28;20262;-70
2021/03/22 03:38:13;;;;;;;24.77;7.65;;;6.60;99.90;;;;;;4963323;28;20209;-72
2021/03/22 03:40:43;;;;;;;21.15;7.20;;;6.60;99.90;;;;;;4973991;28;20306;-70
2021/03/22 03:43:10;;;;;;;23.88;8.98;;;6.70;99.90;;;;;;4963084;28;20223;-69
2021/03/22 03:45:39;;;;;;;24.10;7.10;;;6.80;99.90;;;;;;4966590;28;20206;-70
2021/03/22 03:48:10;;;;;;;21.40;8.48;;;6.80;99.90;;;;;;4959780;28;20310;-71
2021/03/22 03:50:37;;;;;;;28.15;8.55;;;6.80;99.90;;;;;;4970166;28;20226;-70
2021/03/22 03:53:04;;;;;;;23.83;8.50;;;6.70;99.90;;;;;;4971251;28;20392;-70
2021/03/22 03:55:31;;;;;;;18.35;7.47;;;6.70;99.90;;;;;;4971478;28;20211;-70
2021/03/22 03:57:59;;;;;;;30.48;10.20;;;6.70;99.90;;;;;;4969170;28;20207;-70
2021/03/22 04:00:29;;;;;;;37.10;8.63;;;6.70;99.90;;;;;;4963948;28;20218;-71
2021/03/22 04:02:56;;;;;;;32.35;7.80;;;6.70;99.90;;;;;;4967542;28;20213;-71
2021/03/22 04:05:26;;;;;;;28.38;8.30;;;6.70;99.90;;;;;;4962650;28;20254;-71
2021/03/22 04:07:53;;;;;;;27.77;6.95;;;6.80;99.90;;;;;;4964846;28;20250;-73
2021/03/22 04:10:21;;;;;;;26.50;8.77;;;6.80;99.90;;;;;;4965424;28;20310;-71
2021/03/22 04:12:48;;;;;;;22.50;7.20;;;6.80;99.90;;;;;;4964134;28;20247;-70
2021/03/22 04:15:16;;;;;;;23.13;8.05;;;6.80;99.90;;;;;;4963578;28;20226;-69
2021/03/22 04:17:44;;;;;;;29.52;7.65;;;6.90;99.90;;;;;;4970189;28;20291;-70
2021/03/22 04:20:13;;;;;;;21.63;7.70;;;6.80;99.90;;;;;;4962625;28;20223;-72
2021/03/22 04:22:40;;;;;;;21.42;8.30;;;6.80;99.90;;;;;;4973948;28;20302;-71
2021/03/22 04:25:07;;;;;;;19.27;7.32;;;6.70;99.90;;;;;;4974606;28;20224;-71
2021/03/22 04:27:34;;;;;;;34.42;8.38;;;6.70;99.90;;;;;;4963742;28;20199;-70
2021/03/22 04:30:01;;;;;;;29.77;8.20;;;6.60;99.90;;;;;;4967454;28;20661;-71
2021/03/22 04:32:29;;;;;;;17.02;6.65;;;6.50;99.90;;;;;;4965711;28;20207;-73
2021/03/22 04:34:55;;;;;;;35.95;7.75;;;6.50;99.90;;;;;;4963016;28;20286;-72
2021/03/22 04:37:22;;;;;;;19.60;8.00;;;6.40;99.90;;;;;;4968842;28;20210;-71
2021/03/22 04:39:49;;;;;;;19.70;7.15;;;6.40;99.90;;;;;;4962409;28;20567;-71
2021/03/22 04:42:15;;;;;;;19.65;7.78;;;6.40;99.90;;;;;;4968295;28;20211;-70
2021/03/22 04:44:42;;;;;;;28.27;10.35;;;6.50;99.90;;;;;;4965987;28;20210;-71
2021/03/22 04:47:09;;;;;;;21.25;7.60;;;6.50;99.90;;;;;;4966646;28;20264;-71
2021/03/22 04:49:37;;;;;;;31.58;9.60;;;6.60;99.90;;;;;;4969806;28;20661;-71
2021/03/22 04:52:04;;;;;;;29.10;8.27;;;6.60;99.90;;;;;;4967362;28;20216;-71
2021/03/22 04:54:31;;;;;;;18.33;5.95;;;6.70;99.90;;;;;;4973544;28;20317;-70
2021/03/22 04:57:13;;;;;;;26.77;7.88;;;6.70;99.90;;;;;;4971268;28;20210;-71
2021/03/22 04:59:40;;;;;;;27.45;8.00;;;6.70;99.90;;;;;;4968566;28;20202;-71
2021/03/22 05:02:08;;;;;;;20.55;5.68;;;6.70;99.90;;;;;;4971740;28;20660;-71
2021/03/22 05:04:36;;;;;;;24.73;7.45;;;6.70;99.90;;;;;;4964769;28;20273;-71
2021/03/22 05:07:03;;;;;;;28.25;10.43;;;6.70;99.90;;;;;;4958825;28;20646;-71
2021/03/22 05:09:29;;;;;;;22.75;7.85;;;6.80;99.90;;;;;;4963709;28;20211;-70
2021/03/22 05:11:56;;;;;;;16.90;7.75;;;6.80;99.90;;;;;;4963192;28;20276;-70
2021/03/22 05:14:23;;;;;;;17.20;7.82;;;6.90;99.90;;;;;;4962644;28;20269;-71
2021/03/22 05:16:49;;;;;;;21.13;6.13;;;6.90;99.90;;;;;;4970121;28;20627;-70
2021/03/22 05:19:17;;;;;;;15.40;7.18;;;6.90;99.90;;;;;;4958940;28;20231;-70
2021/03/22 05:21:45;;;;;;;27.95;9.07;;;7.00;99.90;;;;;;4969745;28;20223;-71
2021/03/22 05:24:12;;;;;;;15.88;7.38;;;7.00;99.90;;;;;;4965755;28;20293;-71
2021/03/22 05:26:38;;;;;;;19.92;8.05;;;7.00;99.90;;;;;;4968030;28;20208;-71
2021/03/22 05:29:05;;;;;;;18.52;7.55;;;7.00;99.90;;;;;;4963518;28;20281;-72
2021/03/22 05:31:32;;;;;;;18.00;7.65;;;7.00;99.90;;;;;;4973041;28;20231;-71
2021/03/22 05:34:14;;;;;;;29.20;8.45;;;7.10;99.90;;;;;;4971163;28;20220;-71
2021/03/22 05:36:41;;;;;;;15.13;7.47;;;7.10;99.90;;;;;;4964453;28;20207;-67
2021/03/22 05:39:10;;;;;;;28.77;7.85;;;7.10;99.90;;;;;;4964200;28;20205;-68
2021/03/22 05:41:47;;;;;;;23.90;7.18;;;7.10;99.90;;;;;;4968137;28;20704;-69
2021/03/22 05:44:24;;;;;;;18.00;7.22;;;7.10;99.90;;;;;;4964081;28;20210;-71
2021/03/22 05:46:57;;;;;;;21.48;7.25;;;7.10;99.90;;;;;;4967054;28;20214;-72
2021/03/22 05:49:39;;;;;;;22.65;7.10;;;7.10;99.90;;;;;;4965987;28;20580;-72
2021/03/22 05:52:16;;;;;;;21.83;8.00;;;7.20;99.90;;;;;;4963249;28;20310;-72
2021/03/22 05:55:19;;;;;;;30.25;9.23;;;7.20;99.90;;;;;;4971810;28;20672;-72
2021/03/22 05:58:00;;;;;;;24.73;7.00;;;7.20;99.90;;;;;;4932495;28;20214;-72
2021/03/22 06:00:51;;;;;;;25.30;7.60;;;7.20;99.90;;;;;;4959226;28;20226;-74
2021/03/22 06:03:27;;;;;;;17.10;8.55;;;7.30;99.90;;;;;;4973934;28;20199;-74
2021/03/22 06:06:06;;;;;;;23.80;7.57;;;7.30;99.90;;;;;;4959457;28;20213;-70
2021/03/22 06:08:39;;;;;;;16.08;6.93;;;7.30;99.90;;;;;;4961291;28;20279;-71
2021/03/22 06:11:19;;;;;;;19.42;8.07;;;7.30;99.90;;;;;;4972229;28;20238;-72
2021/03/22 06:13:50;;;;;;;24.48;7.68;;;7.30;99.90;;;;;;4960665;28;20236;-71
2021/03/22 06:16:24;;;;;;;14.77;6.45;;;7.20;99.90;;;;;;4962421;28;20676;-72
2021/03/22 06:18:58;;;;;;;22.15;6.55;;;7.30;99.90;;;;;;4961474;28;20208;-71
2021/03/22 06:21:26;;;;;;;20.40;6.38;;;7.40;99.90;;;;;;4959526;28;20225;-72
2021/03/22 06:23:54;;;;;;;28.10;7.80;;;7.40;99.90;;;;;;4968765;28;20201;-71
2021/03/22 06:26:40;;;;;;;26.08;8.02;;;7.30;99.90;;;;;;4962492;28;20212;-71
2021/03/22 06:29:15;;;;;;;19.17;7.47;;;7.20;99.90;;;;;;4966550;28;20203;-72
2021/03/22 06:31:43;;;;;;;16.98;9.63;;;7.30;99.90;;;;;;4972876;28;20686;-73
2021/03/22 06:34:12;;;;;;;23.40;7.32;;;7.30;99.90;;;;;;4964551;28;20250;-70
2021/03/22 06:36:39;;;;;;;16.08;8.05;;;7.30;99.90;;;;;;4958285;28;20218;-71
2021/03/22 06:39:08;;;;;;;28.88;7.38;;;7.30;99.90;;;;;;4960585;28;20214;-71
2021/03/22 06:41:39;;;;;;;16.00;6.57;;;7.30;99.90;;;;;;4968611;28;20311;-72
2021/03/22 06:44:09;;;;;;;20.75;7.25;;;7.30;99.90;;;;;;4963012;28;20232;-71
2021/03/22 06:46:54;;;;;;;17.85;7.22;;;7.30;99.90;;;;;;4955554;28;20672;-74
2021/03/22 06:49:23;;;;;;;24.38;7.72;;;7.30;99.90;;;;;;4966623;28;20220;-71
2021/03/22 06:51:58;;;;;;;16.13;6.63;;;7.40;99.90;;;;;;4966391;28;20219;-71
2021/03/22 06:54:34;;;;;;;23.13;10.15;;;7.40;99.90;;;;;;4969862;28;20605;-72
2021/03/22 06:57:05;;;;;;;17.45;6.80;;;7.50;99.90;;;;;;4963512;28;20315;-70
2021/03/22 06:59:32;;;;;;;19.00;7.20;;;7.50;99.90;;;;;;4965621;28;20551;-71
2021/03/22 07:02:14;;;;;;;17.17;6.95;;;7.50;99.90;;;;;;4964777;28;20215;-70
2021/03/22 07:04:40;;;;;;;18.70;8.30;;;7.60;99.90;;;;;;4963715;28;20254;-70
2021/03/22 07:07:17;;;;;;;29.63;15.70;;;7.60;99.90;;;;;;4963030;28;20662;-68
2021/03/22 07:09:47;;;;;;;17.63;6.25;;;7.60;99.90;;;;;;4962326;28;20202;-70
2021/03/22 07:12:33;;;;;;;17.58;6.20;;;7.70;99.90;;;;;;4960100;28;20208;-75
2021/03/22 07:15:24;;;;;;;21.42;7.22;;;7.70;99.90;;;;;;4965773;28;20248;-72
2021/03/22 07:18:11;;;;;;;19.58;5.63;;;7.70;99.90;;;;;;4965073;28;20206;-72
2021/03/22 07:20:39;;;;;;;24.13;5.88;;;7.80;99.90;;;;;;4956207;28;20262;-71
2021/03/22 07:23:29;;;;;;;17.67;5.25;;;7.80;99.90;;;;;;4968763;28;20302;-72
2021/03/22 07:26:00;;;;;;;14.10;5.90;;;7.90;99.90;;;;;;4971379;28;20232;-72
2021/03/22 07:28:35;;;;;;;13.07;4.43;;;7.90;99.90;;;;;;4957238;28;20219;-71
2021/03/22 07:31:11;;;;;;;17.55;4.68;;;7.90;99.90;;;;;;4967339;28;20699;-71
2021/03/22 07:33:47;;;;;;;8.98;4.47;;;8.20;99.90;;;;;;4973720;28;20231;-73
2021/03/22 07:36:32;;;;;;;10.82;4.38;;;8.50;99.90;;;;;;4971105;28;20210;-74
2021/03/22 07:39:33;;;;;;;16.95;4.32;;;8.70;99.90;;;;;;4962842;28;20290;-73
2021/03/22 07:42:41;;;;;;;8.60;3.20;;;8.90;99.90;;;;;;4959819;28;20244;-73
2021/03/22 07:45:43;;;;;;;8.70;3.05;;;8.70;99.90;;;;;;4915722;29;20658;-72
2021/03/22 07:48:42;;;;;;;10.90;3.67;;;8.70;99.90;;;;;;4960967;28;20228;-73
2021/03/22 07:51:40;;;;;;;11.07;3.47;;;8.90;99.90;;;;;;4965888;28;20249;-72
2021/03/22 07:54:25;;;;;;;8.20;2.97;;;8.90;99.90;;;;;;4954444;28;20232;-73
2021/03/22 07:56:57;;;;;;;8.75;3.38;;;9.00;99.90;;;;;;4972182;28;20298;-73
2021/03/22 07:59:33;;;;;;;8.13;3.47;;;9.30;99.90;;;;;;4972954;28;20667;-75
2021/03/22 08:02:16;;;;;;;14.77;4.82;;;9.50;99.90;;;;;;4964868;28;20206;-74
2021/03/22 08:04:49;;;;;;;8.70;3.38;;;9.50;99.90;;;;;;4961287;28;20297;-73
2021/03/22 08:07:52;;;;;;;8.45;3.05;;;9.30;99.90;;;;;;4963603;28;20674;-75
2021/03/22 08:10:31;;;;;;;5.68;3.03;;;9.50;99.90;;;;;;4945893;28;20294;-75
2021/03/22 08:13:06;;;;;;;6.28;2.85;;;9.70;99.90;;;;;;4963234;28;20206;-75
2021/03/22 08:15:44;;;;;;;8.02;3.13;;;9.80;99.90;;;;;;4964675;28;20289;-73
2021/03/22 08:18:26;;;;;;;4.55;2.20;;;9.90;99.90;;;;;;4964676;28;20220;-73
2021/03/22 08:21:03;;;;;;;7.03;2.35;;;9.70;99.90;;;;;;4964465;28;20252;-72
2021/03/22 08:23:36;;;;;;;8.35;2.55;;;9.50;99.90;;;;;;4963689;28;20596;-74
2021/03/22 08:26:06;;;;;;;6.68;1.90;;;9.50;99.90;;;;;;4971329;28;20693;-76
2021/03/22 08:28:38;;;;;;;6.68;2.25;;;9.50;99.90;;;;;;4969999;28;20217;-74
2021/03/22 08:31:13;;;;;;;11.07;2.45;;;9.60;99.90;;;;;;4961098;28;20226;-74
2021/03/22 08:33:44;;;;;;;2.65;1.60;;;9.70;99.90;;;;;;4967781;28;20645;-73
2021/03/22 08:36:36;;;;;;;3.63;1.95;;;9.90;99.90;;;;;;4960365;28;20293;-74
2021/03/22 08:39:17;;;;;;;5.30;2.35;;;10.10;99.90;;;;;;4962200;28;20217;-74
2021/03/22 08:41:55;;;;;;;6.15;2.45;;;10.30;99.90;;;;;;4963470;28;20224;-75
2021/03/22 08:44:27;;;;;;;9.52;2.28;;;10.70;99.90;;;;;;4970874;28;20533;-75
2021/03/22 08:47:04;;;;;;;6.05;1.83;;;10.70;99.90;;;;;;4961420;28;20273;-74
2021/03/22 08:49:42;;;;;;;1.83;1.55;;;10.70;99.90;;;;;;4970718;28;20209;-76
2021/03/22 08:52:27;;;;;;;6.22;1.95;;;10.40;99.90;;;;;;4962883;28;20302;-77
2021/03/22 08:55:05;;;;;;;5.40;2.00;;;10.10;99.90;;;;;;4973404;28;20222;-74
2021/03/22 08:57:39;;;;;;;3.08;1.85;;;10.10;99.90;;;;;;4972293;28;20210;-75
2021/03/22 09:00:12;;;;;;;5.30;2.03;;;10.00;99.90;;;;;;4972994;28;20561;-74
2021/03/22 09:02:40;;;;;;;7.53;2.15;;;9.70;99.90;;;;;;4968933;28;20590;-76
2021/03/22 09:05:21;;;;;;;6.63;2.65;;;9.50;99.90;;;;;;4956848;28;20231;-74
2021/03/22 09:07:49;;;;;;;5.05;2.28;;;9.40;99.90;;;;;;4967612;28;20203;-77
2021/03/22 09:10:39;;;;;;;5.07;2.47;;;9.40;99.90;;;;;;4965860;28;20657;-77
2021/03/22 09:13:21;;;;;;;4.57;1.75;;;9.30;99.90;;;;;;4973424;28;20212;-76
2021/03/22 09:16:04;;;;;;;6.45;2.90;;;9.30;99.90;;;;;;4964913;28;20305;-77
2021/03/22 09:18:31;;;;;;;7.35;2.72;;;9.40;99.90;;;;;;4970056;28;20199;-74
2021/03/22 09:21:22;;;;;;;7.30;3.25;;;9.50;99.90;;;;;;4972472;28;20232;-75
2021/03/22 09:23:49;;;;;;;5.25;2.80;;;9.40;99.90;;;;;;4964220;28;20272;-76
2021/03/22 09:26:16;;;;;;;3.60;2.75;;;9.40;99.90;;;;;;4961608;28;20209;-77
2021/03/22 09:29:14;;;;;;;5.22;2.20;;;9.40;99.90;;;;;;4963087;28;20201;-75
2021/03/22 09:31:45;;;;;;;5.63;2.78;;;9.40;99.90;;;;;;4964982;28;20682;-75
2021/03/22 09:34:47;;;;;;;4.13;2.80;;;9.50;99.90;;;;;;4972100;28;20234;-74
2021/03/22 09:37:44;;;;;;;2.83;2.08;;;9.40;99.90;;;;;;4973494;28;20246;-74
2021/03/22 09:40:56;;;;;;;7.35;3.08;;;8.90;99.90;;;;;;4974258;28;20321;-75
2021/03/22 09:43:29;;;;;;;6.82;2.20;;;8.90;99.90;;;;;;4964428;28;20228;-73
2021/03/22 09:46:05;;;;;;;2.00;1.83;;;8.90;99.90;;;;;;4967823;28;20557;-76
2021/03/22 09:48:34;;;;;;;3.33;2.40;;;9.00;99.90;;;;;;4957666;28;20198;-75
2021/03/22 09:51:24;;;;;;;5.93;2.70;;;9.20;99.90;;;;;;4963523;28;20233;-75
2021/03/22 09:53:53;;;;;;;13.55;2.22;;;9.50;99.90;;;;;;4962672;28;20630;-75
2021/03/22 09:56:28;;;;;;;12.75;3.80;;;9.90;99.90;;;;;;4971813;28;20210;-74
2021/03/22 09:59:22;;;;;;;3.15;2.28;;;10.40;99.90;;;;;;4961091;28;20210;-76
2021/03/22 10:01:49;;;;;;;5.00;2.33;;;10.70;99.90;;;;;;4960488;28;20227;-75
2021/03/22 10:04:29;;;;;;;4.65;2.25;;;11.10;99.90;;;;;;4964611;28;20206;-75
2021/03/22 10:07:11;;;;;;;2.95;2.10;;;11.40;99.90;;;;;;4963112;28;20358;-75
2021/03/22 10:09:42;;;;;;;12.13;6.57;;;11.30;99.90;;;;;;4961404;28;20235;-75
2021/03/22 10:12:17;;;;;;;9.68;3.15;;;11.20;99.90;;;;;;4958687;28;20202;-74
2021/03/22 10:14:48;;;;;;;7.68;2.72;;;11.00;99.90;;;;;;4961081;28;20297;-74
2021/03/22 10:17:24;;;;;;;6.20;2.90;;;10.80;99.90;;;;;;4967406;28;20206;-74
2021/03/22 10:19:53;;;;;;;8.10;3.10;;;10.70;99.90;;;;;;4965212;28;20206;-76
2021/03/22 10:22:23;;;;;;;11.13;3.08;;;10.80;99.90;;;;;;4971724;28;20209;-76
2021/03/22 10:24:55;;;;;;;5.20;3.42;;;11.10;99.90;;;;;;4970710;28;20543;-74
2021/03/22 10:27:27;;;;;;;6.10;2.92;;;11.20;99.90;;;;;;4963531;28;20619;-75
2021/03/22 10:30:07;;;;;;;5.13;2.83;;;11.20;99.90;;;;;;4961061;28;20322;-74
2021/03/22 10:32:35;;;;;;;5.72;2.75;;;11.10;99.90;;;;;;4963152;28;20705;-75
2021/03/22 10:35:08;;;;;;;11.40;3.13;;;11.10;99.90;;;;;;4961136;28;20250;-75
2021/03/22 10:37:41;;;;;;;3.83;2.58;;;11.00;99.90;;;;;;4965689;28;20206;-75
2021/03/22 10:40:21;;;;;;;5.38;2.72;;;11.00;99.90;;;;;;4960741;28;20768;-74
2021/03/22 10:42:49;;;;;;;6.07;2.83;;;10.90;99.90;;;;;;4975612;28;20213;-76
2021/03/22 10:45:40;;;;;;;7.28;3.42;;;11.20;99.90;;;;;;4966285;28;20302;-75
2021/03/22 10:48:23;;;;;;;6.05;2.65;;;11.20;99.90;;;;;;4963229;28;20284;-74
2021/03/22 10:51:00;;;;;;;6.45;3.08;;;11.00;99.90;;;;;;4967189;28;20274;-74
2021/03/22 10:53:27;;;;;;;8.43;3.10;;;11.00;99.90;;;;;;4966549;28;20210;-74
2021/03/22 10:55:54;;;;;;;7.80;3.28;;;10.90;99.90;;;;;;4970059;28;20318;-73
2021/03/22 10:58:27;;;;;;;8.68;2.58;;;10.80;99.90;;;;;;4975474;28;20295;-75
2021/03/22 11:01:00;;;;;;;4.68;2.08;;;10.70;99.90;;;;;;4967008;28;20229;-75
2021/03/22 11:03:30;;;;;;;5.45;2.78;;;10.60;99.90;;;;;;4960719;28;20200;-75
2021/03/22 11:05:58;;;;;;;6.97;2.72;;;10.60;99.90;;;;;;4958703;28;20717;-75
2021/03/22 11:08:29;;;;;;;5.30;2.38;;;10.70;99.90;;;;;;4973546;28;20305;-75
2021/03/22 11:11:02;;;;;;;9.40;3.33;;;11.10;99.90;;;;;;4968576;28;20584;-76
2021/03/22 11:13:32;;;;;;;4.32;2.70;;;11.30;99.90;;;;;;4964798;28;20245;-76
2021/03/22 11:16:08;;;;;;;7.05;3.95;;;11.30;99.90;;;;;;4973338;28;20305;-75
2021/03/22 11:18:36;;;;;;;6.60;3.92;;;11.40;99.90;;;;;;4971075;28;20198;-75
2021/03/22 11:21:03;;;;;;;8.00;4.32;;;11.30;99.90;;;;;;4973868;28;20286;-76
2021/03/22 11:23:44;;;;;;;8.57;4.25;;;11.10;99.90;;;;;;4974983;28;20212;-73
2021/03/22 11:26:16;;;;;;;10.00;3.65;;;10.80;99.90;;;;;;4973018;28;20206;-74
2021/03/22 11:28:45;;;;;;;9.52;4.45;;;10.80;99.90;;;;;;4960315;28;20206;-74
2021/03/22 11:31:27;;;;;;;7.82;4.53;;;10.60;99.90;;;;;;4964724;28;20258;-74
2021/03/22 11:34:03;;;;;;;10.57;4.65;;;10.20;99.90;;;;;;4967320;28;20202;-75
2021/03/22 11:36:39;;;;;;;7.40;3.63;;;10.20;99.90;;;;;;4963561;28;20203;-75
2021/03/22 11:39:27;;;;;;;6.65;4.25;;;10.30;99.90;;;;;;4966676;28;20337;-75
2021/03/22 11:42:19;;;;;;;5.65;3.70;;;10.50;99.90;;;;;;4971547;28;20273;-75
2021/03/22 11:44:47;;;;;;;7.43;3.80;;;10.50;99.90;;;;;;4960296;28;20204;-74
2021/03/22 11:47:42;;;;;;;6.43;3.65;;;10.60;99.90;;;;;;4975693;28;20213;-75
2021/03/22 11:50:41;;;;;;;3.53;2.83;;;10.80;99.90;;;;;;4958036;28;20546;-75
2021/03/22 11:53:12;;;;;;;7.80;3.38;;;10.70;99.90;;;;;;4951168;29;20291;-75
2021/03/22 11:55:44;;;;;;;7.00;2.92;;;10.70;99.90;;;;;;4955821;28;20229;-78
2021/03/22 11:58:37;;;;;;;5.00;2.47;;;10.60;99.90;;;;;;4971963;28;20233;-74
2021/03/22 12:01:18;;;;;;;4.70;2.35;;;10.60;99.90;;;;;;4973032;28;20263;-77
2021/03/22 12:03:45;;;;;;;3.90;2.33;;;10.80;99.90;;;;;;4964157;28;20605;-75
2021/03/22 12:06:14;;;;;;;9.18;2.75;;;10.80;99.90;;;;;;4970751;28;20243;-75
2021/03/22 12:08:44;;;;;;;5.18;1.75;;;10.80;99.90;;;;;;4961334;28;20203;-75
2021/03/22 12:11:15;;;;;;;7.22;1.40;;;10.70;99.90;;;;;;4959967;28;20686;-74
2021/03/22 12:13:42;;;;;;;3.42;1.85;;;10.80;99.90;;;;;;4967734;28;20375;-75
2021/03/22 12:16:10;;;;;;;7.63;2.20;;;10.80;99.90;;;;;;4960366;28;20226;-75
2021/03/22 12:18:40;;;;;;;3.55;1.75;;;10.90;99.90;;;;;;4970479;28;20537;-75
2021/03/22 12:21:11;;;;;;;4.93;1.77;;;10.80;99.90;;;;;;4965459;28;21064;-75
2021/03/22 12:23:38;;;;;;;2.47;1.83;;;10.80;99.90;;;;;;4969092;28;20242;-74
2021/03/22 12:26:06;;;;;;;3.55;1.85;;;10.60;99.90;;;;;;4972833;28;20433;-74
2021/03/22 12:28:33;;;;;;;2.50;1.85;;;10.20;99.90;;;;;;4962153;28;20269;-73
2021/03/22 12:31:02;;;;;;;6.38;1.60;;;10.00;99.90;;;;;;4964785;28;20232;-75
2021/03/22 12:33:30;;;;;;;1.88;1.45;;;9.80;99.90;;;;;;4961424;28;20618;-75
2021/03/22 12:35:58;;;;;;;3.28;1.90;;;9.70;99.90;;;;;;4961504;28;20230;-74
2021/03/22 12:38:26;;;;;;;4.95;3.00;;;9.70;99.90;;;;;;4963479;28;20685;-74
2021/03/22 12:40:53;;;;;;;4.70;2.70;;;9.90;99.90;;;;;;4972884;28;20234;-75
2021/03/22 12:43:22;;;;;;;6.22;2.50;;;10.20;99.90;;;;;;4966616;28;20202;-74
2021/03/22 12:45:50;;;;;;;4.30;1.70;;;10.60;99.90;;;;;;4962234;28;20202;-76
2021/03/22 12:48:17;;;;;;;5.78;2.88;;;11.10;99.90;;;;;;4965476;28;20297;-75
2021/03/22 12:50:44;;;;;;;5.35;2.38;;;11.50;99.90;;;;;;4970269;28;20222;-75
2021/03/22 12:53:13;;;;;;;4.45;2.40;;;11.60;99.90;;;;;;4973755;28;20217;-75
2021/03/22 12:55:41;;;;;;;4.95;1.80;;;11.50;99.90;;;;;;4962595;28;20698;-75
2021/03/22 12:58:14;;;;;;;3.92;1.98;;;11.50;99.90;;;;;;4962421;28;20359;-77
2021/03/22 13:00:42;;;;;;;7.97;3.22;;;11.40;99.90;;;;;;4969780;28;20261;-74
2021/03/22 13:03:11;;;;;;;3.90;1.83;;;11.20;99.90;;;;;;4978542;28;20279;-74
2021/03/22 13:05:38;;;;;;;3.97;1.80;;;11.00;99.90;;;;;;4980537;28;20210;-75
2021/03/22 13:08:06;;;;;;;2.40;2.00;;;10.80;99.90;;;;;;4974333;28;20670;-76
2021/03/22 13:10:34;;;;;;;2.55;1.75;;;10.80;99.90;;;;;;4966184;28;20674;-76
2021/03/22 13:13:02;;;;;;;4.30;1.90;;;10.80;99.90;;;;;;4973232;28;20202;-76
2021/03/22 13:15:35;;;;;;;3.30;1.27;;;10.80;99.90;;;;;;4969625;28;20223;-75
2021/03/22 13:18:03;;;;;;;4.28;1.67;;;11.10;99.90;;;;;;4958727;28;20269;-74
2021/03/22 13:20:30;;;;;;;5.07;1.90;;;11.20;99.90;;;;;;4959865;28;20326;-74